createdAt,value
2023-04-10T00:01:36.448Z,6.77
2023-04-10T00:04:05.169Z,6.76
2023-04-10T00:06:35.539Z,6.86
2023-04-10T00:09:03.877Z,6.86
2023-04-10T00:11:32.180Z,6.72
2023-04-10T00:14:00.542Z,6.62
2023-04-10T00:16:28.952Z,6.68
2023-04-10T00:18:57.360Z,6.64
2023-04-10T00:21:26.420Z,6.78
2023-04-10T00:23:56.511Z,6.70
2023-04-10T00:26:26.422Z,6.69
2023-04-10T00:28:54.842Z,6.65
2023-04-10T00:31:23.261Z,6.83
2023-04-10T00:33:52.019Z,6.77
2023-04-10T00:36:21.341Z,6.76
2023-04-10T00:38:50.063Z,6.90
2023-04-10T00:41:19.832Z,6.88
2023-04-10T00:43:48.187Z,7.01
2023-04-10T00:46:16.897Z,6.96
2023-04-10T00:48:45.572Z,7.03
2023-04-10T00:51:13.949Z,7.10
2023-04-10T00:53:42.360Z,7.15
2023-04-10T00:56:12.738Z,7.19
2023-04-10T00:58:42.463Z,7.25
2023-04-10T01:01:11.512Z,7.20
2023-04-10T01:03:41.072Z,7.23
2023-04-10T01:06:17.888Z,7.21
2023-04-10T01:08:54.899Z,7.24
2023-04-10T01:11:37.058Z,7.25
2023-04-10T01:14:17.813Z,7.19
2023-04-10T01:16:53.406Z,7.20
2023-04-10T01:19:45.720Z,7.14
2023-04-10T01:22:17.725Z,7.03
2023-04-10T01:25:06.257Z,7.06
2023-04-10T01:27:46.606Z,6.92
2023-04-10T01:30:19.856Z,7.01
2023-04-10T01:32:50.093Z,7.03
2023-04-10T01:35:19.665Z,7.06
2023-04-10T01:37:51.817Z,7.01
2023-04-10T01:40:22.493Z,7.01
2023-04-10T01:42:54.365Z,7.03
2023-04-10T01:45:31.784Z,7.06
2023-04-10T01:48:00.882Z,7.09
2023-04-10T01:50:32.128Z,7.08
2023-04-10T01:53:02.357Z,7.09
2023-04-10T01:55:32.478Z,7.01
2023-04-10T01:58:01.599Z,7.00
2023-04-10T02:00:31.590Z,6.92
2023-04-10T02:03:00.066Z,6.95
2023-04-10T02:05:35.109Z,7.02
2023-04-10T02:08:10.353Z,7.03
2023-04-10T02:10:46.083Z,7.01
2023-04-10T02:13:16.578Z,7.09
2023-04-10T02:15:49.036Z,7.02
2023-04-10T02:18:19.279Z,6.96
2023-04-10T02:20:47.902Z,6.98
2023-04-10T02:23:19.348Z,6.96
2023-04-10T02:25:47.715Z,6.92
2023-04-10T02:28:16.048Z,6.93
2023-04-10T02:30:45.825Z,6.88
2023-04-10T02:33:14.352Z,6.78
2023-04-10T02:35:42.679Z,6.75
2023-04-10T02:38:11.030Z,6.79
2023-04-10T02:40:39.325Z,6.86
2023-04-10T02:43:07.932Z,6.94
2023-04-10T02:45:36.295Z,6.87
2023-04-10T02:48:07.655Z,6.89
2023-04-10T02:50:36.046Z,6.95
2023-04-10T02:53:04.435Z,6.93
2023-04-10T02:55:32.868Z,6.88
2023-04-10T02:58:01.248Z,6.85
2023-04-10T03:00:29.625Z,6.92
2023-04-10T03:02:58.379Z,7.01
2023-04-10T03:05:29.078Z,7.04
2023-04-10T03:07:57.482Z,7.00
2023-04-10T03:10:25.825Z,7.01
2023-04-10T03:12:54.325Z,6.97
2023-04-10T03:15:22.673Z,7.04
2023-04-10T03:17:51.023Z,7.00
2023-04-10T03:20:19.571Z,6.96
2023-04-10T03:22:49.400Z,6.98
2023-04-10T03:25:17.827Z,6.89
2023-04-10T03:27:46.146Z,6.86
2023-04-10T03:30:14.895Z,6.73
2023-04-10T03:32:43.351Z,6.79
2023-04-10T03:35:12.032Z,6.75
2023-04-10T03:37:42.283Z,6.71
2023-04-10T03:40:13.663Z,6.72
2023-04-10T03:42:42.012Z,6.74
2023-04-10T03:45:11.515Z,6.71
2023-04-10T03:47:40.007Z,6.69
2023-04-10T03:50:08.943Z,6.74
2023-04-10T03:52:37.341Z,6.73
2023-04-10T03:55:06.269Z,6.70
2023-04-10T03:57:36.160Z,6.78
2023-04-10T04:00:05.883Z,6.79
2023-04-10T04:02:34.615Z,6.74
2023-04-10T04:05:03.126Z,6.84
2023-04-10T04:07:31.722Z,6.88
2023-04-10T04:10:00.449Z,6.95
2023-04-10T04:12:28.866Z,7.01
2023-04-10T04:14:58.587Z,7.05
2023-04-10T04:17:27.137Z,7.19
2023-04-10T04:19:55.514Z,7.23
2023-04-10T04:22:23.859Z,7.40
2023-04-10T04:24:52.763Z,7.57
2023-04-10T04:27:21.871Z,7.59
2023-04-10T04:29:50.279Z,7.58
2023-04-10T04:32:29.236Z,7.67
2023-04-10T04:34:57.731Z,7.81
2023-04-10T04:37:26.236Z,7.79
2023-04-10T04:39:54.605Z,7.83
2023-04-10T04:42:22.964Z,7.86
2023-04-10T04:44:51.637Z,7.95
2023-04-10T04:47:20.156Z,8.05
2023-04-10T04:49:50.935Z,8.07
2023-04-10T04:52:19.360Z,8.11
2023-04-10T04:54:47.752Z,8.26
2023-04-10T04:57:16.156Z,8.20
2023-04-10T04:59:44.482Z,8.21
2023-04-10T05:02:12.864Z,8.30
2023-04-10T05:04:42.306Z,8.28
2023-04-10T05:07:13.629Z,8.33
2023-04-10T05:09:42.097Z,8.40
2023-04-10T05:12:10.869Z,8.31
2023-04-10T05:14:39.385Z,8.33
2023-04-10T05:17:07.705Z,8.40
2023-04-10T05:19:36.233Z,8.45
2023-04-10T05:22:04.699Z,8.54
2023-04-10T05:24:34.638Z,8.53
2023-04-10T05:27:03.166Z,8.65
2023-04-10T05:29:31.688Z,8.67
2023-04-10T05:32:00.067Z,8.64
2023-04-10T05:34:28.455Z,8.76
2023-04-10T05:36:58.907Z,8.84
2023-04-10T05:39:27.563Z,8.80
2023-04-10T05:41:58.387Z,8.89
2023-04-10T05:44:26.695Z,9.01
2023-04-10T05:46:54.970Z,9.11
2023-04-10T05:49:23.389Z,9.14
2023-04-10T05:51:52.857Z,9.15
2023-04-10T05:54:21.384Z,9.15
2023-04-10T05:56:49.695Z,9.22
2023-04-10T05:59:19.503Z,9.32
2023-04-10T06:01:48.123Z,9.33
2023-04-10T06:04:16.706Z,9.46
2023-04-10T06:06:45.224Z,9.52
2023-04-10T06:09:13.769Z,9.39
2023-04-10T06:11:42.105Z,9.50
2023-04-10T06:14:10.566Z,9.66
2023-04-10T06:16:40.417Z,9.61
2023-04-10T06:19:08.801Z,9.80
2023-04-10T06:21:37.240Z,9.65
2023-04-10T06:24:05.842Z,9.84
2023-04-10T06:26:34.207Z,9.73
2023-04-10T06:29:02.640Z,9.67
2023-04-10T06:31:34.491Z,9.57
2023-04-10T06:34:04.309Z,9.69
2023-04-10T06:36:33.108Z,9.61
2023-04-10T06:39:02.791Z,9.63
2023-04-10T06:41:31.286Z,9.74
2023-04-10T06:44:01.126Z,9.96
2023-04-10T06:46:31.708Z,10.11
2023-04-10T06:49:00.025Z,9.99
2023-04-10T06:51:29.760Z,10.17
2023-04-10T06:53:58.641Z,10.35
2023-04-10T06:56:27.196Z,10.77
2023-04-10T06:58:56.398Z,10.66
2023-04-10T07:01:26.085Z,10.56
2023-04-10T07:03:55.075Z,10.52
2023-04-10T07:06:23.746Z,10.67
2023-04-10T07:08:53.864Z,10.88
2023-04-10T07:11:22.288Z,10.90
2023-04-10T07:13:53.901Z,10.54
2023-04-10T07:16:22.355Z,10.79
2023-04-10T07:18:50.716Z,11.05
2023-04-10T07:21:19.029Z,11.26
2023-04-10T07:23:47.508Z,11.36
2023-04-10T07:26:17.458Z,11.52
2023-04-10T07:28:46.319Z,11.71
2023-04-10T07:31:15.269Z,11.77
2023-04-10T07:33:43.707Z,11.82
2023-04-10T07:36:12.290Z,12.06
2023-04-10T07:38:41.089Z,11.53
2023-04-10T07:41:09.838Z,11.82
2023-04-10T07:43:39.805Z,11.89
2023-04-10T07:46:08.656Z,11.67
2023-04-10T07:48:37.101Z,11.81
2023-04-10T07:51:09.269Z,12.12
2023-04-10T07:53:37.999Z,12.05
2023-04-10T07:56:07.277Z,12.51
2023-04-10T07:58:36.089Z,12.53
2023-04-10T08:01:06.065Z,12.44
2023-04-10T08:03:40.112Z,12.32
2023-04-10T08:06:10.513Z,12.02
2023-04-10T08:08:38.988Z,11.83
2023-04-10T08:11:09.488Z,11.69
2023-04-10T08:13:38.010Z,11.81
2023-04-10T08:16:09.098Z,12.00
2023-04-10T08:18:37.410Z,11.85
2023-04-10T08:21:06.570Z,12.30
2023-04-10T08:23:34.926Z,12.22
2023-04-10T08:26:03.357Z,12.44
2023-04-10T08:28:32.611Z,12.40
2023-04-10T08:31:01.021Z,12.61
2023-04-10T08:33:30.869Z,12.36
2023-04-10T08:35:59.371Z,12.55
2023-04-10T08:38:27.938Z,12.10
2023-04-10T08:40:56.592Z,12.30
2023-04-10T08:43:25.006Z,12.28
2023-04-10T08:45:53.964Z,12.49
2023-04-10T08:48:23.486Z,12.07
2023-04-10T08:50:53.877Z,12.11
2023-04-10T08:53:26.114Z,12.30
2023-04-10T08:55:54.544Z,12.32
2023-04-10T08:58:23.363Z,12.50
2023-04-10T09:00:52.560Z,12.27
2023-04-10T09:03:21.270Z,12.44
2023-04-10T09:05:49.636Z,12.18
2023-04-10T09:08:19.390Z,12.05
2023-04-10T09:10:47.716Z,11.86
2023-04-10T09:13:16.025Z,12.20
2023-04-10T09:16:01.360Z,12.35
2023-04-10T09:18:46.933Z,12.01
2023-04-10T09:21:17.609Z,12.58
2023-04-10T09:23:48.803Z,12.52
2023-04-10T09:26:28.273Z,12.35
2023-04-10T09:29:04.077Z,12.65
2023-04-10T09:31:34.806Z,12.25
2023-04-10T09:34:11.884Z,12.41
2023-04-10T09:36:41.879Z,12.71
2023-04-10T09:39:13.514Z,12.53
2023-04-10T09:41:52.317Z,12.71
2023-04-10T09:44:31.070Z,12.89
2023-04-10T09:46:59.689Z,13.02
2023-04-10T09:49:28.095Z,12.69
2023-04-10T09:51:56.474Z,12.68
2023-04-10T09:54:38.859Z,13.02
2023-04-10T09:57:08.437Z,13.46
2023-04-10T09:59:42.914Z,13.15
2023-04-10T10:02:12.939Z,12.92
2023-04-10T10:04:44.021Z,13.35
2023-04-10T10:07:12.599Z,12.98
2023-04-10T10:09:43.494Z,12.74
2023-04-10T10:12:14.155Z,12.72
2023-04-10T10:14:50.438Z,12.59
2023-04-10T10:17:21.826Z,12.66
2023-04-10T10:20:04.039Z,12.70
2023-04-10T10:22:33.713Z,12.55
2023-04-10T10:25:04.795Z,12.64
2023-04-10T10:27:33.844Z,12.62
2023-04-10T10:30:08.559Z,12.84
2023-04-10T10:32:47.948Z,12.79
2023-04-10T10:35:16.947Z,12.78
2023-04-10T10:37:46.452Z,12.70
2023-04-10T10:40:21.755Z,13.10
2023-04-10T10:42:59.118Z,13.18
2023-04-10T10:45:34.403Z,12.97
2023-04-10T10:48:03.082Z,12.63
2023-04-10T10:50:55.037Z,13.05
2023-04-10T10:53:38.082Z,13.10
2023-04-10T10:56:37.942Z,12.69
2023-04-10T10:59:06.318Z,12.91
2023-04-10T11:01:34.708Z,12.88
2023-04-10T11:04:44.005Z,12.83
2023-04-10T11:07:12.617Z,12.87
2023-04-10T11:09:51.309Z,12.94
2023-04-10T11:12:24.772Z,13.07
2023-04-10T11:15:01.025Z,13.10
2023-04-10T11:17:48.991Z,12.78
2023-04-10T11:20:18.109Z,12.57
2023-04-10T11:23:11.375Z,12.54
2023-04-10T11:25:53.298Z,12.75
2023-04-10T11:28:39.628Z,12.86
2023-04-10T11:31:22.876Z,12.74
2023-04-10T11:34:02.260Z,12.50
2023-04-10T11:36:30.770Z,12.23
2023-04-10T11:39:00.645Z,12.02
2023-04-10T11:41:31.026Z,12.06
2023-04-10T11:44:02.182Z,11.87
2023-04-10T11:46:31.269Z,11.73
2023-04-10T11:49:01.821Z,11.52
2023-04-10T11:51:31.250Z,11.36
2023-04-10T11:54:07.248Z,11.55
2023-04-10T11:56:36.768Z,11.57
2023-04-10T11:59:11.128Z,11.81
2023-04-10T12:01:42.515Z,11.72
2023-04-10T12:04:18.425Z,11.88
2023-04-10T12:06:47.740Z,12.09
2023-04-10T12:09:17.974Z,12.08
2023-04-10T12:11:53.991Z,12.20
2023-04-10T12:14:24.984Z,12.61
2023-04-10T12:16:53.993Z,12.54
2023-04-10T12:19:23.766Z,12.36
2023-04-10T12:21:52.150Z,12.09
2023-04-10T12:24:45.042Z,12.38
2023-04-10T12:27:20.340Z,12.52
2023-04-10T12:29:51.515Z,12.39
2023-04-10T12:32:20.184Z,12.77
2023-04-10T12:34:51.981Z,12.72
2023-04-10T12:37:20.735Z,12.52
2023-04-10T12:39:49.340Z,12.49
2023-04-10T12:42:19.641Z,12.55
2023-04-10T12:44:58.932Z,12.79
2023-04-10T12:47:28.501Z,12.55
2023-04-10T12:50:07.876Z,12.80
2023-04-10T12:52:36.966Z,13.03
2023-04-10T12:55:15.975Z,12.77
2023-04-10T12:57:46.147Z,12.67
2023-04-10T13:00:18.308Z,12.47
2023-04-10T13:02:48.017Z,12.58
2023-04-10T13:05:17.005Z,12.75
2023-04-10T13:07:45.601Z,12.64
2023-04-10T13:10:13.989Z,12.85
2023-04-10T13:12:43.730Z,12.58
2023-04-10T13:15:12.128Z,12.91
2023-04-10T13:17:42.106Z,12.82
2023-04-10T13:20:11.723Z,12.62
2023-04-10T13:22:40.172Z,12.68
2023-04-10T13:25:09.032Z,12.34
2023-04-10T13:27:37.878Z,12.41
2023-04-10T13:30:07.020Z,12.37
2023-04-10T13:32:35.450Z,12.46
2023-04-10T13:35:05.579Z,12.58
2023-04-10T13:37:33.937Z,12.66
2023-04-10T13:40:02.404Z,12.69
2023-04-10T13:42:31.139Z,12.69
2023-04-10T13:44:59.500Z,12.45
2023-04-10T13:47:28.221Z,12.47
2023-04-10T13:49:56.655Z,12.32
2023-04-10T13:52:26.406Z,12.23
2023-04-10T13:54:54.729Z,12.19
2023-04-10T13:57:23.224Z,12.04
2023-04-10T13:59:51.556Z,12.11
2023-04-10T14:02:20.101Z,12.22
2023-04-10T14:04:48.553Z,11.90
2023-04-10T14:07:17.249Z,12.03
2023-04-10T14:09:47.579Z,11.91
2023-04-10T14:12:16.944Z,11.93
2023-04-10T14:14:45.769Z,11.88
2023-04-10T14:17:14.079Z,11.84
2023-04-10T14:19:43.649Z,12.00
2023-04-10T14:22:11.943Z,11.88
2023-04-10T14:24:40.450Z,12.02
2023-04-10T14:27:12.779Z,11.83
2023-04-10T14:29:53.991Z,11.87
2023-04-10T14:32:23.545Z,11.91
2023-04-10T14:34:52.016Z,11.78
2023-04-10T14:37:22.913Z,11.71
2023-04-10T14:39:51.335Z,11.46
2023-04-10T14:42:21.564Z,11.32
2023-04-10T14:44:50.074Z,11.48
2023-04-10T14:47:18.465Z,11.35
2023-04-10T14:49:46.805Z,11.54
2023-04-10T14:52:15.273Z,11.60
2023-04-10T14:54:43.631Z,11.38
2023-04-10T14:57:13.180Z,11.24
2023-04-10T14:59:42.967Z,11.16
2023-04-10T15:02:11.397Z,11.16
2023-04-10T15:04:39.766Z,11.17
2023-04-10T15:07:08.365Z,11.18
2023-04-10T15:09:36.882Z,11.12
2023-04-10T15:12:05.614Z,11.16
2023-04-10T15:14:34.055Z,11.03
2023-04-10T15:17:03.899Z,10.92
2023-04-10T15:19:32.356Z,10.99
2023-04-10T15:22:00.867Z,11.03
2023-04-10T15:24:32.616Z,11.15
2023-04-10T15:27:08.871Z,11.09
2023-04-10T15:29:39.994Z,10.97
2023-04-10T15:32:10.122Z,10.79
2023-04-10T15:34:38.474Z,10.83
2023-04-10T15:37:07.189Z,10.82
2023-04-10T15:39:37.131Z,10.73
2023-04-10T15:42:06.129Z,10.85
2023-04-10T15:44:34.615Z,10.75
2023-04-10T15:47:03.125Z,10.85
2023-04-10T15:49:38.032Z,10.69
2023-04-10T15:52:07.523Z,10.74
2023-04-10T15:54:36.262Z,10.78
2023-04-10T15:57:05.029Z,10.68
2023-04-10T15:59:34.550Z,10.65
2023-04-10T16:02:03.121Z,10.72
2023-04-10T16:04:33.416Z,10.80
2023-04-10T16:07:02.032Z,10.75
2023-04-10T16:09:30.452Z,10.80
2023-04-10T16:11:59.496Z,10.73
2023-04-10T16:14:28.019Z,10.82
2023-04-10T16:16:56.476Z,10.79
2023-04-10T16:19:24.796Z,10.75
2023-04-10T16:21:54.544Z,10.64
2023-04-10T16:24:22.949Z,10.79
2023-04-10T16:26:51.312Z,10.74
2023-04-10T16:29:19.973Z,10.73
2023-04-10T16:31:48.437Z,10.72
2023-04-10T16:34:17.177Z,10.60
2023-04-10T16:36:45.585Z,10.63
2023-04-10T16:39:15.380Z,10.60
2023-04-10T16:41:43.750Z,10.59
2023-04-10T16:44:12.092Z,10.64
2023-04-10T16:46:40.536Z,10.61
2023-04-10T16:49:09.032Z,10.56
2023-04-10T16:51:37.373Z,10.53
2023-04-10T16:54:06.213Z,10.53
2023-04-10T16:56:36.042Z,10.52
2023-04-10T16:59:04.582Z,10.53
2023-04-10T17:01:35.276Z,10.46
2023-04-10T17:04:03.776Z,10.48
2023-04-10T17:06:32.184Z,10.48
2023-04-10T17:09:00.735Z,10.37
2023-04-10T17:11:29.272Z,10.48
2023-04-10T17:13:58.981Z,10.47
2023-04-10T17:16:28.502Z,10.47
2023-04-10T17:18:57.179Z,10.48
2023-04-10T17:21:27.292Z,10.50
2023-04-10T17:23:55.673Z,10.45
2023-04-10T17:26:24.862Z,10.45
2023-04-10T17:28:53.444Z,10.32
2023-04-10T17:31:23.621Z,10.36
2023-04-10T17:33:52.004Z,10.25
2023-04-10T17:36:20.905Z,10.31
2023-04-10T17:38:50.795Z,10.27
2023-04-10T17:41:21.042Z,10.19
2023-04-10T17:43:50.025Z,10.26
2023-04-10T17:46:18.498Z,10.14
2023-04-10T17:48:48.329Z,10.19
2023-04-10T17:51:16.746Z,10.08
2023-04-10T17:53:45.140Z,10.04
2023-04-10T17:56:20.089Z,10.13
2023-04-10T17:58:48.901Z,10.14
2023-04-10T18:01:23.630Z,10.04
2023-04-10T18:03:53.577Z,10.15
2023-04-10T18:06:22.013Z,10.08
2023-04-10T18:08:50.904Z,10.01
2023-04-10T18:11:19.268Z,9.92
2023-04-10T18:13:48.540Z,9.96
2023-04-10T18:16:17.672Z,9.88
2023-04-10T18:18:46.139Z,9.84
2023-04-10T18:21:16.436Z,9.71
2023-04-10T18:23:45.122Z,9.43
2023-04-10T18:26:14.048Z,9.27
2023-04-10T18:28:43.639Z,9.33
2023-04-10T18:31:14.841Z,9.41
2023-04-10T18:33:43.780Z,9.33
2023-04-10T18:36:14.175Z,9.18
2023-04-10T18:38:44.182Z,8.89
2023-04-10T18:41:12.664Z,9.04
2023-04-10T18:43:41.457Z,8.96
2023-04-10T18:46:10.814Z,8.97
2023-04-10T18:48:43.070Z,8.59
2023-04-10T18:51:12.349Z,8.57
2023-04-10T18:53:41.458Z,8.46
2023-04-10T18:56:11.457Z,8.49
2023-04-10T18:58:39.851Z,8.41
2023-04-10T19:01:10.707Z,8.27
2023-04-10T19:03:40.677Z,8.25
2023-04-10T19:06:10.167Z,8.22
2023-04-10T19:08:38.967Z,8.20
2023-04-10T19:11:07.975Z,8.11
2023-04-10T19:13:37.730Z,8.07
2023-04-10T19:16:06.509Z,8.06
2023-04-10T19:18:35.004Z,8.06
2023-04-10T19:21:04.285Z,8.06
2023-04-10T19:23:32.867Z,7.96
2023-04-10T19:26:01.170Z,7.96
2023-04-10T19:28:30.767Z,8.03
2023-04-10T19:31:00.618Z,8.10
2023-04-10T19:33:29.963Z,8.16
2023-04-10T19:35:59.229Z,8.20
2023-04-10T19:38:29.447Z,8.16
2023-04-10T19:40:58.533Z,8.17
2023-04-10T19:43:26.940Z,7.97
2023-04-10T19:45:56.347Z,8.08
2023-04-10T19:48:26.089Z,7.97
2023-04-10T19:50:55.485Z,8.04
2023-04-10T19:53:23.913Z,8.02
2023-04-10T19:55:52.409Z,7.97
2023-04-10T19:58:38.885Z,7.93
2023-04-10T20:01:08.953Z,7.80
2023-04-10T20:03:39.290Z,7.78
2023-04-10T20:06:08.794Z,7.87
2023-04-10T20:08:43.243Z,7.77
2023-04-10T20:11:11.636Z,7.81
2023-04-10T20:13:41.068Z,7.81
2023-04-10T20:16:09.748Z,7.79
2023-04-10T20:18:41.394Z,7.79
2023-04-10T20:21:09.838Z,7.72
2023-04-10T20:23:39.107Z,7.66
2023-04-10T20:26:08.736Z,7.66
2023-04-10T20:28:37.278Z,7.65
2023-04-10T20:31:05.855Z,7.73
2023-04-10T20:33:34.347Z,7.63
2023-04-10T20:36:04.562Z,7.55
2023-04-10T20:38:32.934Z,7.58
2023-04-10T20:41:01.453Z,7.59
2023-04-10T20:43:29.980Z,7.59
2023-04-10T20:45:58.622Z,7.74
2023-04-10T20:48:26.982Z,7.65
2023-04-10T20:50:55.289Z,7.74
2023-04-10T20:53:25.156Z,7.76
2023-04-10T20:55:54.146Z,7.67
2023-04-10T20:58:23.353Z,7.73
2023-04-10T21:00:53.100Z,7.81
2023-04-10T21:03:22.012Z,7.95
2023-04-10T21:05:52.750Z,7.96
2023-04-10T21:08:22.152Z,7.91
2023-04-10T21:10:51.921Z,7.91
2023-04-10T21:13:20.209Z,7.82
2023-04-10T21:15:50.633Z,7.85
2023-04-10T21:18:20.256Z,7.88
2023-04-10T21:20:48.725Z,7.76
2023-04-10T21:23:17.082Z,7.76
2023-04-10T21:25:54.407Z,7.69
2023-04-10T21:28:22.834Z,7.68
2023-04-10T21:30:51.440Z,7.67
2023-04-10T21:33:19.859Z,7.71
2023-04-10T21:35:49.215Z,7.66
2023-04-10T21:38:17.550Z,7.72
2023-04-10T21:40:53.666Z,7.67
2023-04-10T21:43:26.173Z,7.70
2023-04-10T21:45:55.010Z,7.62
2023-04-10T21:48:23.382Z,7.62
2023-04-10T21:50:53.015Z,7.54
2023-04-10T21:53:21.361Z,7.66
2023-04-10T21:55:50.285Z,7.60
2023-04-10T21:58:20.243Z,7.61
2023-04-10T22:00:49.999Z,7.61
2023-04-10T22:03:20.329Z,7.58
2023-04-10T22:05:50.305Z,7.61
2023-04-10T22:08:20.246Z,7.76
2023-04-10T22:10:48.954Z,7.73
2023-04-10T22:13:29.586Z,7.73
2023-04-10T22:16:02.194Z,7.79
2023-04-10T22:18:31.295Z,7.65
2023-04-10T22:21:01.782Z,7.67
2023-04-10T22:23:30.232Z,7.74
2023-04-10T22:26:01.088Z,7.73
2023-04-10T22:28:30.422Z,7.73
2023-04-10T22:31:00.301Z,7.74
2023-04-10T22:33:28.645Z,7.75
2023-04-10T22:35:57.038Z,7.73
2023-04-10T22:38:25.516Z,7.71
2023-04-10T22:40:56.199Z,7.73
2023-04-10T22:43:24.556Z,7.69
2023-04-10T22:45:52.995Z,7.63
2023-04-10T22:48:23.297Z,7.60
2023-04-10T22:50:51.743Z,7.56
2023-04-10T22:53:20.114Z,7.65
2023-04-10T22:55:48.563Z,7.65
2023-04-10T22:58:16.974Z,7.63
2023-04-10T23:00:45.385Z,7.69
2023-04-10T23:03:13.801Z,7.69
2023-04-10T23:05:43.694Z,7.71
2023-04-10T23:08:12.129Z,7.75
2023-04-10T23:10:40.404Z,7.75
2023-04-10T23:13:08.794Z,7.76
2023-04-10T23:15:37.213Z,7.77
2023-04-10T23:18:06.066Z,7.73
2023-04-10T23:20:34.401Z,7.82
2023-04-10T23:23:04.100Z,7.85
2023-04-10T23:25:32.511Z,7.82
2023-04-10T23:28:01.080Z,7.84
2023-04-10T23:30:29.592Z,7.86
2023-04-10T23:32:58.390Z,7.93
2023-04-10T23:35:28.304Z,7.89
2023-04-10T23:37:57.795Z,7.88
2023-04-10T23:40:27.532Z,7.95
2023-04-10T23:42:55.933Z,7.87
2023-04-10T23:45:24.249Z,7.95
2023-04-10T23:47:53.009Z,7.87
2023-04-10T23:50:21.447Z,7.87
2023-04-10T23:52:50.704Z,7.91
2023-04-10T23:55:19.987Z,7.87
2023-04-10T23:57:49.802Z,7.88
